createdAt,value
2018-07-06T00:00:03.093Z,1016.55
2018-07-06T00:05:02.854Z,1016.51
2018-07-06T00:10:03.300Z,1016.52
2018-07-06T00:15:02.746Z,1016.5
2018-07-06T00:20:03.118Z,1016.63
2018-07-06T00:25:03.490Z,1016.58
2018-07-06T00:30:02.930Z,1016.54
2018-07-06T00:35:03.327Z,1016.55
2018-07-06T00:40:02.805Z,1016.63
2018-07-06T00:45:03.224Z,1016.69
2018-07-06T00:50:02.602Z,1016.71
2018-07-06T00:55:03.015Z,1016.71
2018-07-06T01:00:03.411Z,1016.75
2018-07-06T01:05:02.781Z,1016.87
2018-07-06T01:10:03.517Z,1016.88
2018-07-06T01:15:03.049Z,1016.81
2018-07-06T01:20:02.628Z,1016.85
2018-07-06T01:25:03.043Z,1016.91
2018-07-06T01:30:03.507Z,1016.96
2018-07-06T01:35:03.046Z,1016.91
2018-07-06T01:40:03.504Z,1016.9
2018-07-06T01:45:02.946Z,1016.9
2018-07-06T01:50:03.387Z,1016.98
2018-07-06T01:55:02.811Z,1016.9
2018-07-06T02:00:03.215Z,1016.82
2018-07-06T02:05:02.714Z,1016.9
2018-07-06T02:10:03.189Z,1016.9
2018-07-06T02:15:02.600Z,1016.98
2018-07-06T02:20:03.047Z,1016.93
2018-07-06T02:25:03.372Z,1016.93
2018-07-06T02:30:02.733Z,1016.97
2018-07-06T02:35:03.204Z,1016.98
2018-07-06T02:40:02.660Z,1017.03
2018-07-06T02:45:03.050Z,1017.06
2018-07-06T02:50:03.539Z,1016.96
2018-07-06T02:55:03.256Z,1017.01
2018-07-06T03:00:02.911Z,1017
2018-07-06T03:05:03.396Z,1017.11
2018-07-06T03:10:02.879Z,1017.1
2018-07-06T03:15:03.282Z,1017.2
2018-07-06T03:20:02.727Z,1017.17
2018-07-06T03:25:03.102Z,1017.29
2018-07-06T03:30:03.573Z,1017.27
2018-07-06T03:35:02.926Z,1017.3
2018-07-06T03:40:03.316Z,1017.34
2018-07-06T03:45:02.736Z,1017.37
2018-07-06T03:50:03.255Z,1017.4
2018-07-06T03:55:03.180Z,1017.41
2018-07-06T04:00:02.931Z,1017.59
2018-07-06T04:05:03.374Z,1017.55
2018-07-06T04:10:02.844Z,1017.59
2018-07-06T04:15:03.310Z,1017.63
2018-07-06T04:20:02.833Z,1017.55
2018-07-06T04:25:03.360Z,1017.59
2018-07-06T04:30:03.134Z,1017.62
2018-07-06T04:35:03.540Z,1017.6
2018-07-06T04:40:03.018Z,1017.62
2018-07-06T04:45:03.485Z,1017.71
2018-07-06T04:50:02.880Z,1017.74
2018-07-06T04:55:03.376Z,1017.75
2018-07-06T05:00:02.879Z,1017.79
2018-07-06T05:05:03.352Z,1017.79
2018-07-06T05:10:02.856Z,1017.83
2018-07-06T05:15:03.262Z,1017.78
2018-07-06T05:20:02.732Z,1017.83
2018-07-06T05:25:03.163Z,1017.88
2018-07-06T05:30:02.610Z,1017.91
2018-07-06T05:35:03.050Z,1017.94
2018-07-06T05:40:02.582Z,1017.94
2018-07-06T05:45:03.070Z,1017.97
2018-07-06T05:50:02.569Z,1018.04
2018-07-06T05:55:03.056Z,1018.01
2018-07-06T06:00:03.443Z,1018.02
2018-07-06T06:05:02.873Z,1018.11
2018-07-06T06:10:03.369Z,1018.19
2018-07-06T06:15:02.814Z,1018.27
2018-07-06T06:20:03.346Z,1018.28
2018-07-06T06:25:02.844Z,1018.4
2018-07-06T06:30:03.294Z,1018.43
2018-07-06T06:35:02.753Z,1018.56
2018-07-06T06:45:02.865Z,1018.67
2018-07-06T06:50:03.397Z,1018.71
2018-07-06T06:55:02.850Z,1018.75
2018-07-06T07:00:03.310Z,1018.76
2018-07-06T07:05:02.773Z,1018.83
2018-07-06T07:10:03.225Z,1018.87
2018-07-06T07:15:02.661Z,1018.86
2018-07-06T07:20:03.881Z,1018.88
2018-07-06T07:25:03.421Z,1018.89
2018-07-06T07:30:03.289Z,1018.87
2018-07-06T07:40:03.531Z,1018.92
2018-07-06T07:45:02.945Z,1018.94
2018-07-06T07:50:03.409Z,1018.94
2018-07-06T07:55:03.138Z,1019.02
2018-07-06T08:00:02.635Z,1018.89
2018-07-06T08:05:03.171Z,1018.86
2018-07-06T08:10:02.635Z,1018.88
2018-07-06T08:15:03.068Z,1018.85
2018-07-06T08:20:03.576Z,1018.83
2018-07-06T08:25:02.969Z,1018.85
2018-07-06T08:30:03.464Z,1018.86
2018-07-06T08:35:02.941Z,1018.94
2018-07-06T08:40:03.437Z,1018.96
2018-07-06T08:45:03.675Z,1018.96
2018-07-06T08:50:03.175Z,1018.88
2018-07-06T08:55:02.703Z,1018.97
2018-07-06T09:00:03.168Z,1018.99
2018-07-06T09:05:02.704Z,1018.94
2018-07-06T09:10:03.244Z,1019.01
2018-07-06T09:15:02.756Z,1018.97
2018-07-06T09:20:04.648Z,1019.01
2018-07-06T09:25:03.299Z,1019.07
2018-07-06T09:30:03.046Z,1019.01
2018-07-06T09:35:03.747Z,1019.07
2018-07-06T09:40:03.461Z,1019.05
2018-07-06T09:45:02.913Z,1019.04
2018-07-06T09:50:03.689Z,1019.08
2018-07-06T09:55:03.149Z,1019.08
2018-07-06T10:00:02.929Z,1019.14
2018-07-06T10:05:03.435Z,1019.07
2018-07-06T10:10:02.889Z,1019.07
2018-07-06T10:15:03.414Z,1019.1
2018-07-06T10:20:02.891Z,1019.04
2018-07-06T10:30:02.942Z,1019.04
2018-07-06T10:35:03.387Z,1019.11
2018-07-06T10:40:03.873Z,1019.13
2018-07-06T10:45:02.624Z,1019.04
2018-07-06T10:50:03.281Z,1019.08
2018-07-06T10:55:02.735Z,1019.07
2018-07-06T11:00:03.196Z,1019.17
2018-07-06T11:05:03.137Z,1019.1
2018-07-06T11:10:02.755Z,1019.12
2018-07-06T11:15:03.373Z,1019.15
2018-07-06T11:20:02.831Z,1019.1
2018-07-06T11:25:03.433Z,1019.19
2018-07-06T11:30:03.000Z,1019.23
2018-07-06T11:35:03.514Z,1019.18
2018-07-06T11:40:03.023Z,1019.11
2018-07-06T11:45:03.941Z,1019.18
2018-07-06T11:50:03.453Z,1019.15
2018-07-06T11:55:02.927Z,1019.21
2018-07-06T12:00:03.398Z,1019.19
2018-07-06T12:05:02.860Z,1019.22
2018-07-06T12:10:03.344Z,1019.17
2018-07-06T12:15:02.862Z,1019.19
2018-07-06T12:20:03.372Z,1019.17
2018-07-06T12:25:02.846Z,1019.19
2018-07-06T12:30:03.324Z,1019.11
2018-07-06T12:35:02.765Z,1019.09
2018-07-06T12:40:03.286Z,1019.03
2018-07-06T12:45:02.723Z,1019.03
2018-07-06T12:50:03.153Z,1019.1
2018-07-06T12:55:03.538Z,1019.07
2018-07-06T13:00:02.949Z,1018.98
2018-07-06T13:05:03.532Z,1019.16
2018-07-06T13:10:03.011Z,1019.15
2018-07-06T13:15:03.521Z,1019.2
2018-07-06T13:20:03.003Z,1019.23
2018-07-06T13:25:03.423Z,1019.28
2018-07-06T13:30:02.879Z,1019.23
2018-07-06T13:35:03.306Z,1019.28
2018-07-06T13:40:02.844Z,1019.26
2018-07-06T13:45:03.305Z,1019.26
2018-07-06T13:50:02.743Z,1019.24
2018-07-06T13:55:03.201Z,1019.32
2018-07-06T14:00:02.672Z,1019.36
2018-07-06T14:05:03.084Z,1019.41
2018-07-06T14:10:03.546Z,1019.38
2018-07-06T14:15:02.961Z,1019.34
2018-07-06T14:20:03.445Z,1019.47
2018-07-06T14:25:03.235Z,1019.47
2018-07-06T14:30:02.614Z,1019.42
2018-07-06T14:35:03.290Z,1019.5
2018-07-06T14:40:02.824Z,1019.54
2018-07-06T14:45:03.280Z,1019.49
2018-07-06T14:50:02.732Z,1019.5
2018-07-06T14:55:03.226Z,1019.61
2018-07-06T15:00:02.756Z,1019.58
2018-07-06T15:05:03.251Z,1019.63
2018-07-06T15:10:02.813Z,1019.7
2018-07-06T15:15:03.246Z,1019.72
2018-07-06T15:20:02.726Z,1019.73
2018-07-06T15:25:03.119Z,1019.81
2018-07-06T15:30:03.556Z,1019.86
2018-07-06T15:35:02.900Z,1019.77
2018-07-06T15:40:03.488Z,1019.82
2018-07-06T15:45:02.862Z,1019.79
2018-07-06T15:50:03.231Z,1019.78
2018-07-06T15:55:02.666Z,1019.79
2018-07-06T16:00:03.099Z,1019.71
2018-07-06T16:05:03.576Z,1019.75
2018-07-06T16:10:03.022Z,1019.77
2018-07-06T16:15:03.374Z,1019.78
2018-07-06T16:20:02.766Z,1019.78
2018-07-06T16:25:03.360Z,1019.8
2018-07-06T16:30:02.768Z,1019.76
2018-07-06T16:35:03.224Z,1019.77
2018-07-06T16:40:02.662Z,1019.79
2018-07-06T16:45:03.082Z,1019.76
2018-07-06T16:50:03.531Z,1019.77
2018-07-06T16:55:02.987Z,1019.74
2018-07-06T17:00:03.421Z,1019.75
2018-07-06T17:05:02.806Z,1019.71
2018-07-06T17:10:03.296Z,1019.68
2018-07-06T17:15:02.778Z,1019.69
2018-07-06T17:20:03.251Z,1019.73
2018-07-06T17:25:02.672Z,1019.61
2018-07-06T17:30:03.156Z,1019.63
2018-07-06T17:35:03.565Z,1019.66
2018-07-06T17:40:03.089Z,1019.66
2018-07-06T17:45:03.486Z,1019.68
2018-07-06T17:50:02.926Z,1019.68
2018-07-06T17:55:03.340Z,1019.73
2018-07-06T18:00:02.864Z,1019.79
2018-07-06T18:05:03.224Z,1019.66
2018-07-06T18:10:02.703Z,1019.67
2018-07-06T18:15:03.125Z,1019.61
2018-07-06T18:20:02.574Z,1019.63
2018-07-06T18:25:03.277Z,1019.68
2018-07-06T18:30:02.710Z,1019.64
2018-07-06T18:35:03.267Z,1019.69
2018-07-06T18:40:02.763Z,1019.73
2018-07-06T18:45:03.229Z,1019.81
2018-07-06T18:50:02.757Z,1019.8
2018-07-06T18:55:03.263Z,1019.79
2018-07-06T19:00:02.697Z,1019.85
2018-07-06T19:05:03.092Z,1019.84
2018-07-06T19:10:02.641Z,1019.86
2018-07-06T19:15:03.096Z,1019.88
2018-07-06T19:20:02.596Z,1020.01
2018-07-06T19:25:03.028Z,1020.02
2018-07-06T19:30:03.458Z,1020.09
2018-07-06T19:35:02.911Z,1020.14
2018-07-06T19:40:03.361Z,1020.18
2018-07-06T19:45:02.843Z,1020.2
2018-07-06T19:50:03.383Z,1020.34
2018-07-06T19:55:02.771Z,1020.32
2018-07-06T20:00:03.529Z,1020.38
2018-07-06T20:05:02.980Z,1020.43
2018-07-06T20:10:03.499Z,1020.49
2018-07-06T20:15:02.948Z,1020.6
2018-07-06T20:20:03.603Z,1020.59
2018-07-06T20:25:03.103Z,1020.66
2018-07-06T20:30:03.561Z,1020.68
2018-07-06T20:35:03.168Z,1020.82
2018-07-06T20:40:02.669Z,1020.87
2018-07-06T20:45:03.454Z,1020.94
2018-07-06T20:50:02.968Z,1020.96
2018-07-06T20:55:03.465Z,1021.06
2018-07-06T21:00:02.943Z,1021.13
2018-07-06T21:05:03.394Z,1021.12
2018-07-06T21:10:02.855Z,1021.17
2018-07-06T21:15:03.282Z,1021.25
2018-07-06T21:20:02.790Z,1021.32
2018-07-06T21:25:03.229Z,1021.29
2018-07-06T21:30:02.929Z,1021.31
2018-07-06T21:35:03.405Z,1021.27
2018-07-06T21:40:02.890Z,1021.23
2018-07-06T21:45:03.303Z,1021.24
2018-07-06T21:50:02.747Z,1021.24
2018-07-06T21:55:03.196Z,1021.26
2018-07-06T22:00:02.658Z,1021.26
2018-07-06T22:05:03.085Z,1021.35
2018-07-06T22:10:03.564Z,1021.36
2018-07-06T22:15:02.950Z,1021.35
2018-07-06T22:20:03.397Z,1021.37
2018-07-06T22:25:02.824Z,1021.43
2018-07-06T22:30:03.333Z,1021.49
2018-07-06T22:35:02.820Z,1021.5
2018-07-06T22:40:03.258Z,1021.48
2018-07-06T22:45:02.781Z,1021.45
2018-07-06T22:50:03.237Z,1021.46
2018-07-06T22:55:02.657Z,1021.45
2018-07-06T23:00:03.089Z,1021.48
2018-07-06T23:05:03.153Z,1021.47
2018-07-06T23:10:02.581Z,1021.56
2018-07-06T23:15:02.938Z,1021.58
2018-07-06T23:20:03.376Z,1021.6
2018-07-06T23:25:02.755Z,1021.58
2018-07-06T23:30:03.194Z,1021.59
2018-07-06T23:35:02.619Z,1021.57
2018-07-06T23:40:03.117Z,1021.59
2018-07-06T23:45:03.480Z,1021.65
2018-07-06T23:50:02.897Z,1021.64
2018-07-06T23:55:03.325Z,1021.64
